Star Markella — V7KL3 — position and weather

sailwx.info

Track history (hours):
 
Tides and Currents Weather Stations Pressure Air Temp Water Temp Dewpoint Dewpoint Depression Visibility Wind Speed Wind Dir Waves Ship Positions

Star Markella

Last reported at 2015-Jan-20 07:07 UTC. Time now 2015-Jan-29 10:23 UTC.
Position N 46°00' W 122°51'.
Warning: this ship's position is 9 days out of date.

Length 229 m; draft 7 m.

Type: Cargo ship. MMSI: 538002640.

Date/timePositionNaut miles runAvg speedWind from/ knotsBaromVisibWave heightAir tempDewpointWater temp
2015-Jan-20 07:07N 46°00' W 122°51'38 7.7
2015-Jan-20 02:12N 46°15' W 123°41'  
2015-Jan-14 03:32N 35°13' E 119°55'1110.4
2015-Jan-14 02:32N 35°16' E 119°43'9 9.1
2015-Jan-14 01:33N 35°20' E 119°34'2 1.4
2015-Jan-14 00:14N 35°22' E 119°32'0 0.0
2015-Jan-13 23:08N 35°22' E 119°32'0 0.0
2015-Jan-13 22:32N 35°22' E 119°32'0 0.0
2015-Jan-13 21:14N 35°22' E 119°32'0 0.0
2015-Jan-13 20:32N 35°22' E 119°32'0 0.0
2015-Jan-13 19:32N 35°22' E 119°32'0 0.0
2015-Jan-13 18:32N 35°22' E 119°32'0 0.0
2015-Jan-13 17:26N 35°22' E 119°32'0 0.0
2015-Jan-13 16:32N 35°22' E 119°32'0 0.0
2015-Jan-13 15:32N 35°22' E 119°32'0 0.0
2015-Jan-13 14:26N 35°22' E 119°32'0 0.0
2015-Jan-13 13:20N 35°22' E 119°32'0 0.0
2015-Jan-13 12:32N 35°22' E 119°32'0 0.2
2015-Jan-13 11:32N 35°22' E 119°32'0 0.0
2015-Jan-13 10:32N 35°22' E 119°32'0 0.0
2015-Jan-13 09:26N 35°22' E 119°32'0 0.0
2015-Jan-13 08:20N 35°22' E 119°32'0 0.0
2015-Jan-13 07:26N 35°22' E 119°32'0 0.0
2015-Jan-13 06:26N 35°22' E 119°32'0 0.0
2015-Jan-13 05:32N 35°22' E 119°32'0 0.0
2015-Jan-13 04:32N 35°22' E 119°32'0 0.0
2015-Jan-13 03:32N 35°22' E 119°32'0 0.0
2015-Jan-13 02:32N 35°22' E 119°32'0 0.0
2015-Jan-13 01:32N 35°22' E 119°32'0 0.0
2015-Jan-13 00:32N 35°22' E 119°32'0 0.0
2015-Jan-12 23:32N 35°22' E 119°32'0 0.0
2015-Jan-12 22:32N 35°22' E 119°32'0 0.0
2015-Jan-12 21:26N 35°22' E 119°32'0 0.0
2015-Jan-12 20:32N 35°22' E 119°32'0 0.0
2015-Jan-12 19:32N 35°22' E 119°32'0 0.0
2015-Jan-12 18:32N 35°22' E 119°32'0 0.0
2015-Jan-12 17:32N 35°22' E 119°32'0 0.0
2015-Jan-12 16:32N 35°22' E 119°32'0 0.0
2015-Jan-12 15:32N 35°22' E 119°32'0 0.0
2015-Jan-12 14:32N 35°22' E 119°32'0 0.0
2015-Jan-12 13:14N 35°22' E 119°32'0 0.0
2015-Jan-12 11:20N 35°22' E 119°32'0 0.0
2015-Jan-12 10:32N 35°22' E 119°32'0 0.0
2015-Jan-12 09:32N 35°22' E 119°32'0 0.0
2015-Jan-12 06:26N 35°22' E 119°32'0 0.0
2015-Jan-12 05:26N 35°22' E 119°32'0 0.0
2015-Jan-12 04:26N 35°22' E 119°32'0 0.0
2015-Jan-12 03:26N 35°22' E 119°32'0 0.0
2015-Jan-12 02:26N 35°22' E 119°32'0 0.0
2015-Jan-12 01:20N 35°22' E 119°32'0 0.0
2015-Jan-12 00:32N 35°22' E 119°32'0 0.0
2015-Jan-11 23:32N 35°22' E 119°32'0 0.0
2015-Jan-11 22:32N 35°22' E 119°32'0 0.0
2015-Jan-11 21:32N 35°22' E 119°32'0 0.0
2015-Jan-11 20:32N 35°22' E 119°32'0 0.0
2015-Jan-11 19:32N 35°22' E 119°32'0 0.0
2015-Jan-11 18:32N 35°22' E 119°32'0 0.0
2015-Jan-11 17:20N 35°22' E 119°32'0 0.0
2015-Jan-11 15:31N 35°22' E 119°32'4 3.9
2015-Jan-11 14:33N 35°19' E 119°36'6 6.0
2015-Jan-11 13:33N 35°17' E 119°42'6 6.1
2015-Jan-11 12:33N 35°17' E 119°50'1 0.5
2015-Jan-11 11:18N 35°17' E 119°51'0 0.0
2015-Jan-11 10:24N 35°17' E 119°51'0 0.0
2015-Jan-11 09:12N 35°17' E 119°51'0 0.1
2015-Jan-11 07:33N 35°17' E 119°51'  
Track history (hours):
 
Tides and Currents Weather Stations Pressure Air Temp Water Temp Dewpoint Dewpoint Depression Visibility Wind Speed Wind Dir Waves Ship Positions

Star Markella

Last reported at 2015-Jan-20 07:07 UTC. Time now 2015-Jan-29 10:23 UTC.
Position N 46°00' W 122°51'.
Warning: this ship's position is 9 days out of date.

Length 229 m; draft 7 m.

Type: Cargo ship. MMSI: 538002640.

Date/timePositionNaut miles runAvg speedWind from/ knotsBaromVisibWave heightAir tempDewpointWater temp
2015-Jan-20 07:07N 46°00' W 122°51'38 7.7
2015-Jan-20 02:12N 46°15' W 123°41'  
2015-Jan-14 03:32N 35°13' E 119°55'1110.4
2015-Jan-14 02:32N 35°16' E 119°43'9 9.1
2015-Jan-14 01:33N 35°20' E 119°34'2 1.4
2015-Jan-14 00:14N 35°22' E 119°32'0 0.0
2015-Jan-13 23:08N 35°22' E 119°32'0 0.0
2015-Jan-13 22:32N 35°22' E 119°32'0 0.0
2015-Jan-13 21:14N 35°22' E 119°32'0 0.0
2015-Jan-13 20:32N 35°22' E 119°32'0 0.0
2015-Jan-13 19:32N 35°22' E 119°32'0 0.0
2015-Jan-13 18:32N 35°22' E 119°32'0 0.0
2015-Jan-13 17:26N 35°22' E 119°32'0 0.0
2015-Jan-13 16:32N 35°22' E 119°32'0 0.0
2015-Jan-13 15:32N 35°22' E 119°32'0 0.0
2015-Jan-13 14:26N 35°22' E 119°32'0 0.0
2015-Jan-13 13:20N 35°22' E 119°32'0 0.0
2015-Jan-13 12:32N 35°22' E 119°32'0 0.2
2015-Jan-13 11:32N 35°22' E 119°32'0 0.0
2015-Jan-13 10:32N 35°22' E 119°32'0 0.0
2015-Jan-13 09:26N 35°22' E 119°32'0 0.0
2015-Jan-13 08:20N 35°22' E 119°32'0 0.0
2015-Jan-13 07:26N 35°22' E 119°32'0 0.0
2015-Jan-13 06:26N 35°22' E 119°32'0 0.0
2015-Jan-13 05:32N 35°22' E 119°32'0 0.0
2015-Jan-13 04:32N 35°22' E 119°32'0 0.0
2015-Jan-13 03:32N 35°22' E 119°32'0 0.0
2015-Jan-13 02:32N 35°22' E 119°32'0 0.0
2015-Jan-13 01:32N 35°22' E 119°32'0 0.0
2015-Jan-13 00:32N 35°22' E 119°32'0 0.0
2015-Jan-12 23:32N 35°22' E 119°32'0 0.0
2015-Jan-12 22:32N 35°22' E 119°32'0 0.0
2015-Jan-12 21:26N 35°22' E 119°32'0 0.0
2015-Jan-12 20:32N 35°22' E 119°32'0 0.0
2015-Jan-12 19:32N 35°22' E 119°32'0 0.0
2015-Jan-12 18:32N 35°22' E 119°32'0 0.0
2015-Jan-12 17:32N 35°22' E 119°32'0 0.0
2015-Jan-12 16:32N 35°22' E 119°32'0 0.0
2015-Jan-12 15:32N 35°22' E 119°32'0 0.0
2015-Jan-12 14:32N 35°22' E 119°32'0 0.0
2015-Jan-12 13:14N 35°22' E 119°32'0 0.0
2015-Jan-12 11:20N 35°22' E 119°32'0 0.0
2015-Jan-12 10:32N 35°22' E 119°32'0 0.0
2015-Jan-12 09:32N 35°22' E 119°32'0 0.0
2015-Jan-12 06:26N 35°22' E 119°32'0 0.0
2015-Jan-12 05:26N 35°22' E 119°32'0 0.0
2015-Jan-12 04:26N 35°22' E 119°32'0 0.0
2015-Jan-12 03:26N 35°22' E 119°32'0 0.0
2015-Jan-12 02:26N 35°22' E 119°32'0 0.0
2015-Jan-12 01:20N 35°22' E 119°32'0 0.0
2015-Jan-12 00:32N 35°22' E 119°32'0 0.0
2015-Jan-11 23:32N 35°22' E 119°32'0 0.0
2015-Jan-11 22:32N 35°22' E 119°32'0 0.0
2015-Jan-11 21:32N 35°22' E 119°32'0 0.0
2015-Jan-11 20:32N 35°22' E 119°32'0 0.0
2015-Jan-11 19:32N 35°22' E 119°32'0 0.0
2015-Jan-11 18:32N 35°22' E 119°32'0 0.0
2015-Jan-11 17:20N 35°22' E 119°32'0 0.0
2015-Jan-11 15:31N 35°22' E 119°32'4 3.9
2015-Jan-11 14:33N 35°19' E 119°36'6 6.0
2015-Jan-11 13:33N 35°17' E 119°42'6 6.1
2015-Jan-11 12:33N 35°17' E 119°50'1 0.5
2015-Jan-11 11:18N 35°17' E 119°51'0 0.0
2015-Jan-11 10:24N 35°17' E 119°51'0 0.0
2015-Jan-11 09:12N 35°17' E 119°51'0 0.1
2015-Jan-11 07:33N 35°17' E 119°51'  

Dump ship's entire track history